createdAt,value
2022-10-02T00:01:51.462Z,3.08
2022-10-02T00:04:22.517Z,2.50
2022-10-02T00:06:50.677Z,2.80
2022-10-02T00:09:21.549Z,2.80
2022-10-02T00:11:51.312Z,2.97
2022-10-02T00:14:20.961Z,2.97
2022-10-02T00:16:49.250Z,3.30
2022-10-02T00:19:17.703Z,3.10
2022-10-02T00:21:49.697Z,2.45
2022-10-02T00:24:18.848Z,2.90
2022-10-02T00:26:53.189Z,2.70
2022-10-02T00:29:29.482Z,4.10
2022-10-02T00:32:01.503Z,2.78
2022-10-02T00:34:35.348Z,3.00
2022-10-02T00:37:05.233Z,2.95
2022-10-02T00:39:39.858Z,2.55
2022-10-02T00:42:23.305Z,2.60
2022-10-02T00:44:57.156Z,2.70
2022-10-02T00:47:33.261Z,2.50
2022-10-02T00:50:05.305Z,2.72
2022-10-02T00:52:40.035Z,2.78
2022-10-02T00:55:24.134Z,2.67
2022-10-02T00:58:09.160Z,3.10
2022-10-02T01:00:38.005Z,3.35
2022-10-02T01:03:13.053Z,3.08
2022-10-02T01:05:40.584Z,2.40
2022-10-02T01:08:08.558Z,3.60
2022-10-02T01:10:38.028Z,3.03
2022-10-02T01:13:05.547Z,2.60
2022-10-02T01:15:34.168Z,3.55
2022-10-02T01:18:03.291Z,3.22
2022-10-02T01:20:34.504Z,2.60
2022-10-02T01:23:06.359Z,2.60
2022-10-02T01:25:35.236Z,2.65
2022-10-02T01:28:02.716Z,2.55
2022-10-02T01:30:30.706Z,2.60
2022-10-02T01:32:59.027Z,2.60
2022-10-02T01:35:27.621Z,2.60
2022-10-02T01:37:56.300Z,2.42
2022-10-02T01:40:24.860Z,3.38
2022-10-02T01:42:54.150Z,2.60
2022-10-02T01:45:27.390Z,2.30
2022-10-02T01:47:59.416Z,2.50
2022-10-02T01:50:31.435Z,3.10
2022-10-02T01:53:03.779Z,2.78
2022-10-02T01:55:35.423Z,2.90
2022-10-02T01:58:16.643Z,2.50
2022-10-02T02:00:50.581Z,2.42
2022-10-02T02:03:19.852Z,2.30
2022-10-02T02:05:49.738Z,2.42
2022-10-02T02:08:19.378Z,2.60
2022-10-02T02:10:50.018Z,2.95
2022-10-02T02:13:21.276Z,2.80
2022-10-02T02:15:52.554Z,2.67
2022-10-02T02:18:22.744Z,2.42
2022-10-02T02:20:52.652Z,2.40
2022-10-02T02:23:21.347Z,2.80
2022-10-02T02:25:51.052Z,2.60
2022-10-02T02:28:21.977Z,2.40
2022-10-02T02:30:51.315Z,2.58
2022-10-02T02:33:22.885Z,2.45
2022-10-02T02:35:53.042Z,2.20
2022-10-02T02:38:24.878Z,2.45
2022-10-02T02:40:52.831Z,2.40
2022-10-02T02:43:23.579Z,4.80
2022-10-02T02:45:53.241Z,2.58
2022-10-02T02:48:23.789Z,2.42
2022-10-02T02:50:52.267Z,2.85
2022-10-02T02:53:22.257Z,2.55
2022-10-02T02:55:52.399Z,2.53
2022-10-02T02:58:21.596Z,2.13
2022-10-02T03:00:50.427Z,2.17
2022-10-02T03:03:17.907Z,2.90
2022-10-02T03:05:46.720Z,2.45
2022-10-02T03:08:18.302Z,2.50
2022-10-02T03:10:50.382Z,2.42
2022-10-02T03:13:23.409Z,2.47
2022-10-02T03:15:59.883Z,2.78
2022-10-02T03:18:39.763Z,2.38
2022-10-02T03:21:10.889Z,2.53
2022-10-02T03:23:42.923Z,2.20
2022-10-02T03:26:14.845Z,2.42
2022-10-02T03:28:55.519Z,2.85
2022-10-02T03:31:25.891Z,3.45
2022-10-02T03:33:54.584Z,3.05
2022-10-02T03:36:24.397Z,2.60
2022-10-02T03:39:06.489Z,2.80
2022-10-02T03:41:40.381Z,2.83
2022-10-02T03:44:07.760Z,2.65
2022-10-02T03:46:36.869Z,2.92
2022-10-02T03:49:04.443Z,2.90
2022-10-02T03:51:31.867Z,2.75
2022-10-02T03:53:59.273Z,3.03
2022-10-02T03:56:37.740Z,3.05
2022-10-02T03:59:11.315Z,2.72
2022-10-02T04:01:48.324Z,2.92
2022-10-02T04:04:18.157Z,2.75
2022-10-02T04:06:47.965Z,2.63
2022-10-02T04:09:19.019Z,2.70
2022-10-02T04:11:48.943Z,2.90
2022-10-02T04:14:19.678Z,2.83
2022-10-02T04:16:52.033Z,2.40
2022-10-02T04:19:21.583Z,3.00
2022-10-02T04:21:52.147Z,2.67
2022-10-02T04:24:28.630Z,3.03
2022-10-02T04:27:00.696Z,2.85
2022-10-02T04:29:29.343Z,2.67
2022-10-02T04:32:02.450Z,3.17
2022-10-02T04:34:29.813Z,2.90
2022-10-02T04:37:06.601Z,2.75
2022-10-02T04:39:46.379Z,3.40
2022-10-02T04:42:19.357Z,4.68
2022-10-02T04:44:58.013Z,3.60
2022-10-02T04:47:43.105Z,3.13
2022-10-02T04:50:17.348Z,3.00
2022-10-02T04:52:55.917Z,2.58
2022-10-02T04:55:31.219Z,2.28
2022-10-02T04:58:14.687Z,2.80
2022-10-02T05:00:46.673Z,3.30
2022-10-02T05:03:21.438Z,3.55
2022-10-02T05:05:58.016Z,3.40
2022-10-02T05:08:44.434Z,3.28
2022-10-02T05:11:31.522Z,2.80
2022-10-02T05:14:12.022Z,2.25
2022-10-02T05:16:54.263Z,2.60
2022-10-02T05:19:29.761Z,3.08
2022-10-02T05:22:13.798Z,3.08
2022-10-02T05:24:46.114Z,2.70
2022-10-02T05:27:28.384Z,2.92
2022-10-02T05:30:06.829Z,2.75
2022-10-02T05:32:49.542Z,3.30
2022-10-02T05:35:28.496Z,3.53
2022-10-02T05:37:59.593Z,3.70
2022-10-02T05:40:29.573Z,3.20
2022-10-02T05:43:00.541Z,3.08
2022-10-02T05:45:30.199Z,3.40
2022-10-02T05:48:03.621Z,3.33
2022-10-02T05:50:34.537Z,2.97
2022-10-02T05:53:03.841Z,3.10
2022-10-02T05:55:33.747Z,3.95
2022-10-02T05:58:04.188Z,3.83
2022-10-02T06:00:33.861Z,3.72
2022-10-02T06:03:08.132Z,4.35
2022-10-02T06:05:42.257Z,4.80
2022-10-02T06:08:11.363Z,5.50
2022-10-02T06:10:42.321Z,5.57
2022-10-02T06:13:12.804Z,6.10
2022-10-02T06:15:43.921Z,7.60
2022-10-02T06:18:12.940Z,7.22
2022-10-02T06:20:43.944Z,5.80
2022-10-02T06:23:13.605Z,5.60
2022-10-02T06:25:43.395Z,5.10
2022-10-02T06:28:15.706Z,4.70
2022-10-02T06:30:46.186Z,4.30
2022-10-02T06:33:16.691Z,4.40
2022-10-02T06:35:52.347Z,4.22
2022-10-02T06:38:26.821Z,4.50
2022-10-02T06:41:00.251Z,3.55
2022-10-02T06:43:40.415Z,4.10
2022-10-02T06:46:13.765Z,3.88
2022-10-02T06:48:46.263Z,4.38
2022-10-02T06:51:18.067Z,4.20
2022-10-02T06:53:51.230Z,4.65
2022-10-02T06:56:29.641Z,4.30
2022-10-02T06:59:04.561Z,3.83
2022-10-02T07:01:38.158Z,4.05
2022-10-02T07:04:12.250Z,4.15
2022-10-02T07:06:46.857Z,4.65
2022-10-02T07:09:29.189Z,4.68
2022-10-02T07:12:03.062Z,4.32
2022-10-02T07:14:34.964Z,5.70
2022-10-02T07:17:17.478Z,7.13
2022-10-02T07:20:08.243Z,7.10
2022-10-02T07:22:45.566Z,7.72
2022-10-02T07:25:23.999Z,6.38
2022-10-02T07:27:58.051Z,6.10
2022-10-02T07:30:25.530Z,6.22
2022-10-02T07:32:54.085Z,5.95
2022-10-02T07:35:36.029Z,5.85
2022-10-02T07:38:13.356Z,6.15
2022-10-02T07:40:47.193Z,5.90
2022-10-02T07:43:20.907Z,6.53
2022-10-02T07:45:53.761Z,6.50
2022-10-02T07:48:37.898Z,6.55
2022-10-02T07:51:32.293Z,6.95
2022-10-02T07:54:06.582Z,7.97
2022-10-02T07:56:38.744Z,7.18
2022-10-02T07:59:10.073Z,6.85
2022-10-02T08:01:39.303Z,7.25
2022-10-02T08:04:08.140Z,7.47
2022-10-02T08:06:36.655Z,6.70
2022-10-02T08:09:09.074Z,5.22
2022-10-02T08:11:40.564Z,5.57
2022-10-02T08:14:10.025Z,4.75
2022-10-02T08:16:40.062Z,6.13
2022-10-02T08:19:09.727Z,6.60
2022-10-02T08:21:42.883Z,5.32
2022-10-02T08:24:14.388Z,6.25
2022-10-02T08:26:44.630Z,5.15
2022-10-02T08:29:16.169Z,6.70
2022-10-02T08:34:17.590Z,6.75
2022-10-02T08:36:51.746Z,6.30
2022-10-02T08:39:35.868Z,5.60
2022-10-02T08:42:32.048Z,5.80
2022-10-02T08:45:16.022Z,4.85
2022-10-02T08:47:58.852Z,5.75
2022-10-02T08:50:53.315Z,5.85
2022-10-02T08:53:41.045Z,6.80
2022-10-02T08:56:23.284Z,7.75
2022-10-02T08:59:11.989Z,7.55
2022-10-02T09:01:59.730Z,7.45
2022-10-02T09:04:42.866Z,6.65
2022-10-02T09:07:29.313Z,6.65
2022-10-02T09:10:14.713Z,6.60
2022-10-02T09:13:01.351Z,6.50
2022-10-02T09:15:39.916Z,7.00
2022-10-02T09:18:16.518Z,5.53
2022-10-02T09:21:01.778Z,4.40
2022-10-02T09:23:41.137Z,4.35
2022-10-02T09:26:18.416Z,4.40
2022-10-02T09:29:01.231Z,4.28
2022-10-02T09:31:49.955Z,2.83
2022-10-02T09:34:30.296Z,3.13
2022-10-02T09:37:17.255Z,3.05
2022-10-02T09:40:05.828Z,3.58
2022-10-02T09:42:51.067Z,3.03
2022-10-02T09:45:36.614Z,2.60
2022-10-02T09:48:22.067Z,2.75
2022-10-02T09:51:08.844Z,2.92
2022-10-02T09:53:54.556Z,2.78
2022-10-02T09:56:40.069Z,2.78
2022-10-02T09:59:22.659Z,1.98
2022-10-02T10:02:00.003Z,1.90
2022-10-02T10:05:04.073Z,2.00
2022-10-02T10:07:39.142Z,3.17
2022-10-02T10:10:20.606Z,2.35
2022-10-02T10:13:08.529Z,1.75
2022-10-02T10:16:11.398Z,1.40
2022-10-02T10:19:03.380Z,1.60
2022-10-02T10:21:49.872Z,1.52
2022-10-02T10:24:30.182Z,1.30
2022-10-02T10:27:10.077Z,1.50
2022-10-02T10:29:56.546Z,1.40
2022-10-02T10:32:41.844Z,2.60
2022-10-02T10:35:27.307Z,2.42
2022-10-02T10:38:19.510Z,1.65
2022-10-02T10:41:03.227Z,2.05
2022-10-02T10:43:55.104Z,1.52
2022-10-02T10:46:33.032Z,2.08
2022-10-02T10:49:16.107Z,1.52
2022-10-02T10:51:48.871Z,1.50
2022-10-02T10:54:32.165Z,1.77
2022-10-02T10:57:04.289Z,1.60
2022-10-02T10:59:46.810Z,1.90
2022-10-02T11:02:24.055Z,1.60
2022-10-02T11:05:01.699Z,1.40
2022-10-02T11:07:35.884Z,1.50
2022-10-02T11:10:11.837Z,1.35
2022-10-02T11:12:48.415Z,1.23
2022-10-02T11:15:21.983Z,1.48
2022-10-02T11:17:56.382Z,1.70
2022-10-02T11:20:40.394Z,1.33
2022-10-02T11:23:22.853Z,1.45
2022-10-02T11:26:02.904Z,1.80
2022-10-02T11:28:56.352Z,1.60
2022-10-02T11:31:30.545Z,1.48
2022-10-02T11:34:10.442Z,1.30
2022-10-02T11:36:53.540Z,1.24
2022-10-02T11:39:32.347Z,1.80
2022-10-02T11:42:26.170Z,1.83
2022-10-02T11:45:05.099Z,1.50
2022-10-02T11:47:51.125Z,1.30
2022-10-02T11:50:37.225Z,1.10
2022-10-02T11:53:11.996Z,0.95
2022-10-02T11:55:47.365Z,1.33
2022-10-02T11:58:21.798Z,1.00
2022-10-02T12:01:08.538Z,1.00
2022-10-02T12:03:45.106Z,0.90
2022-10-02T12:06:17.683Z,0.93
2022-10-02T12:08:50.431Z,1.10
2022-10-02T12:11:22.801Z,1.30
2022-10-02T12:14:04.913Z,1.20
2022-10-02T12:16:39.153Z,1.20
2022-10-02T12:19:15.416Z,1.20
2022-10-02T12:22:08.511Z,1.00
2022-10-02T12:24:59.286Z,1.05
2022-10-02T12:27:36.824Z,0.80
2022-10-02T12:30:13.289Z,1.00
2022-10-02T12:32:55.474Z,0.80
2022-10-02T12:35:28.076Z,0.80
2022-10-02T12:37:58.362Z,1.05
2022-10-02T12:40:30.532Z,0.90
2022-10-02T12:43:33.403Z,0.85
2022-10-02T12:46:10.377Z,1.10
2022-10-02T12:48:46.095Z,1.05
2022-10-02T12:51:30.214Z,1.15
2022-10-02T12:54:27.762Z,1.00
2022-10-02T12:57:38.053Z,0.88
2022-10-02T13:00:11.807Z,1.20
2022-10-02T13:03:01.682Z,1.02
2022-10-02T13:05:47.135Z,1.10
2022-10-02T13:08:23.177Z,1.48
2022-10-02T13:11:00.801Z,0.98
2022-10-02T13:13:42.997Z,1.10
2022-10-02T13:16:20.514Z,1.95
2022-10-02T13:19:00.162Z,1.90
2022-10-02T13:21:35.830Z,2.05
2022-10-02T13:24:10.180Z,2.15
2022-10-02T13:26:42.557Z,2.88
2022-10-02T13:29:25.401Z,4.20
2022-10-02T13:32:05.361Z,1.90
2022-10-02T13:34:42.854Z,1.38
2022-10-02T13:37:16.750Z,1.20
2022-10-02T13:39:54.615Z,0.77
2022-10-02T13:42:29.518Z,0.90
2022-10-02T13:45:01.581Z,1.10
2022-10-02T13:47:38.629Z,0.80
2022-10-02T13:50:13.129Z,0.95
2022-10-02T13:52:52.589Z,0.80
2022-10-02T13:55:23.468Z,0.90
2022-10-02T13:57:57.141Z,1.02
2022-10-02T14:00:41.357Z,2.45
2022-10-02T14:03:13.619Z,1.85
2022-10-02T14:05:44.926Z,1.90
2022-10-02T14:08:27.252Z,1.20
2022-10-02T14:11:01.658Z,1.30
2022-10-02T14:13:35.456Z,0.90
2022-10-02T14:16:11.699Z,1.30
2022-10-02T14:18:54.719Z,1.30
2022-10-02T14:21:28.712Z,1.25
2022-10-02T14:24:08.738Z,1.42
2022-10-02T14:26:44.060Z,1.52
2022-10-02T14:29:18.039Z,3.75
2022-10-02T14:32:06.886Z,3.97
2022-10-02T14:34:56.367Z,3.30
2022-10-02T14:37:32.370Z,4.10
2022-10-02T14:40:03.245Z,2.67
2022-10-02T14:42:37.261Z,1.17
2022-10-02T14:45:21.757Z,2.20
2022-10-02T14:47:57.399Z,1.60
2022-10-02T14:50:30.950Z,1.30
2022-10-02T14:53:05.075Z,1.30
2022-10-02T14:55:38.709Z,1.13
2022-10-02T14:58:17.577Z,1.23
2022-10-02T15:00:52.429Z,1.20
2022-10-02T15:03:36.449Z,1.33
2022-10-02T15:06:10.856Z,1.65
2022-10-02T15:08:42.456Z,1.52
2022-10-02T15:11:20.805Z,1.50
2022-10-02T15:13:52.555Z,1.27
2022-10-02T15:16:40.147Z,1.30
2022-10-02T15:19:12.354Z,1.35
2022-10-02T15:21:43.541Z,1.40
2022-10-02T15:24:28.174Z,1.35
2022-10-02T15:27:02.966Z,1.70
2022-10-02T15:29:37.644Z,1.00
2022-10-02T15:32:19.136Z,2.20
2022-10-02T15:34:49.031Z,4.13
2022-10-02T15:37:21.867Z,3.20
2022-10-02T15:40:08.837Z,2.97
2022-10-02T15:42:58.367Z,1.90
2022-10-02T15:45:39.025Z,2.40
2022-10-02T15:48:19.985Z,2.50
2022-10-02T15:50:53.058Z,2.80
2022-10-02T15:53:28.220Z,3.40
2022-10-02T15:55:59.567Z,7.60
2022-10-02T15:58:35.537Z,7.05
2022-10-02T16:01:21.443Z,8.77
2022-10-02T16:03:52.501Z,4.97
2022-10-02T16:06:25.667Z,6.05
2022-10-02T16:09:11.184Z,4.50
2022-10-02T16:11:50.062Z,4.35
2022-10-02T16:14:25.062Z,4.00
2022-10-02T16:17:05.418Z,4.30
2022-10-02T16:19:38.571Z,2.90
2022-10-02T16:22:17.742Z,3.15
2022-10-02T16:25:03.418Z,3.42
2022-10-02T16:27:40.915Z,3.92
2022-10-02T16:30:14.239Z,5.20
2022-10-02T16:32:50.177Z,6.32
2022-10-02T16:35:25.129Z,6.40
2022-10-02T16:38:00.933Z,6.80
2022-10-02T16:40:31.432Z,7.38
2022-10-02T16:43:14.880Z,7.55
2022-10-02T16:45:53.973Z,6.78
2022-10-02T16:48:24.322Z,5.63
2022-10-02T16:51:08.568Z,5.78
2022-10-02T16:53:37.542Z,6.85
2022-10-02T16:56:12.373Z,4.95
2022-10-02T16:58:43.771Z,5.50
2022-10-02T17:01:22.277Z,7.28
2022-10-02T17:04:06.961Z,7.55
2022-10-02T17:06:37.377Z,8.55
2022-10-02T17:09:07.599Z,9.60
2022-10-02T17:11:37.981Z,9.55
2022-10-02T17:14:14.811Z,9.38
2022-10-02T17:16:47.729Z,9.82
2022-10-02T17:19:23.296Z,9.68
2022-10-02T17:21:53.196Z,10.73
2022-10-02T17:24:31.581Z,9.60
2022-10-02T17:27:07.350Z,10.85
2022-10-02T17:29:39.237Z,14.38
2022-10-02T17:32:10.362Z,8.48
2022-10-02T17:34:47.019Z,7.70
2022-10-02T17:37:37.114Z,8.40
2022-10-02T17:40:08.792Z,10.32
2022-10-02T17:42:41.540Z,11.40
2022-10-02T17:45:16.685Z,10.98
2022-10-02T17:47:57.368Z,11.50
2022-10-02T17:50:34.105Z,12.25
2022-10-02T17:53:25.313Z,12.50
2022-10-02T17:56:23.735Z,13.10
2022-10-02T17:58:57.212Z,12.52
2022-10-02T18:01:28.537Z,14.02
2022-10-02T18:04:02.941Z,13.40
2022-10-02T18:06:36.278Z,14.13
2022-10-02T18:09:21.873Z,21.00
2022-10-02T18:12:07.941Z,18.23
2022-10-02T18:14:52.067Z,12.70
2022-10-02T18:17:27.038Z,11.32
2022-10-02T18:20:00.600Z,13.30
2022-10-02T18:22:36.955Z,13.80
2022-10-02T18:25:14.401Z,17.05
2022-10-02T18:27:57.398Z,17.38
2022-10-02T18:30:26.245Z,17.95
2022-10-02T18:33:08.737Z,15.57
2022-10-02T18:35:48.374Z,18.80
2022-10-02T18:38:21.455Z,16.85
2022-10-02T18:40:57.833Z,16.25
2022-10-02T18:43:32.522Z,14.40
2022-10-02T18:46:04.878Z,14.68
2022-10-02T18:48:44.292Z,14.00
2022-10-02T18:51:20.519Z,21.15
2022-10-02T18:53:59.700Z,12.00
2022-10-02T18:56:42.781Z,9.77
2022-10-02T18:59:18.125Z,8.75
2022-10-02T19:01:51.348Z,10.00
2022-10-02T19:04:33.942Z,8.20
2022-10-02T19:07:05.979Z,9.82
2022-10-02T19:09:33.565Z,8.68
2022-10-02T19:12:05.190Z,15.45
2022-10-02T19:14:36.119Z,10.23
2022-10-02T19:17:04.790Z,7.80
2022-10-02T19:19:33.194Z,15.32
2022-10-02T19:22:01.749Z,6.00
2022-10-02T19:24:32.395Z,6.45
2022-10-02T19:27:01.292Z,7.35
2022-10-02T19:29:30.897Z,8.55
2022-10-02T19:32:00.375Z,6.82
2022-10-02T19:34:30.736Z,7.43
2022-10-02T19:37:02.591Z,7.63
2022-10-02T19:39:33.073Z,8.18
2022-10-02T19:42:03.212Z,14.98
2022-10-02T19:44:34.238Z,18.20
2022-10-02T19:47:03.801Z,16.77
2022-10-02T19:49:34.448Z,15.77
2022-10-02T19:52:05.164Z,18.13
2022-10-02T19:54:36.919Z,18.42
2022-10-02T19:57:06.883Z,21.38
2022-10-02T19:59:41.817Z,18.00
2022-10-02T20:02:14.426Z,17.05
2022-10-02T20:04:42.214Z,15.55
2022-10-02T20:07:14.389Z,14.68
2022-10-02T20:09:46.398Z,12.48
2022-10-02T20:12:16.192Z,10.15
2022-10-02T20:14:44.964Z,11.13
2022-10-02T20:17:12.879Z,9.77
2022-10-02T20:19:43.414Z,10.85
2022-10-02T20:22:24.107Z,9.52
2022-10-02T20:24:55.858Z,8.02
2022-10-02T20:27:25.936Z,7.93
2022-10-02T20:29:55.128Z,6.15
2022-10-02T20:32:25.453Z,6.75
2022-10-02T20:34:56.248Z,5.85
2022-10-02T20:37:26.321Z,4.70
2022-10-02T20:40:02.312Z,4.25
2022-10-02T20:42:32.373Z,3.85
2022-10-02T20:45:00.494Z,4.40
2022-10-02T20:47:51.887Z,4.45
2022-10-02T20:50:25.990Z,4.40
2022-10-02T20:53:21.241Z,4.47
2022-10-02T20:55:52.944Z,4.65
2022-10-02T20:58:35.599Z,4.35
2022-10-02T21:01:17.498Z,5.15
2022-10-02T21:04:16.431Z,5.13
2022-10-02T21:06:53.559Z,5.70
2022-10-02T21:09:43.037Z,6.43
2022-10-02T21:12:21.835Z,6.75
2022-10-02T21:14:57.398Z,6.25
2022-10-02T21:17:38.634Z,6.68
2022-10-02T21:20:46.254Z,7.22
2022-10-02T21:23:31.471Z,7.55
2022-10-02T21:26:33.183Z,7.88
2022-10-02T21:29:17.349Z,8.10
2022-10-02T21:31:58.507Z,8.13
2022-10-02T21:34:31.982Z,8.68
2022-10-02T21:37:00.596Z,8.38
2022-10-02T21:39:52.234Z,9.00
2022-10-02T21:42:36.384Z,10.38
2022-10-02T21:45:24.007Z,12.02
2022-10-02T21:48:06.490Z,13.90
2022-10-02T21:51:00.305Z,13.77
2022-10-02T21:53:51.967Z,14.40
2022-10-02T21:56:33.920Z,14.15
2022-10-02T21:59:16.312Z,14.38
2022-10-02T22:02:08.853Z,14.00
2022-10-02T22:04:54.716Z,15.23
2022-10-02T22:07:25.135Z,15.52
2022-10-02T22:09:58.058Z,15.32
2022-10-02T22:12:32.322Z,16.27
2022-10-02T22:15:06.035Z,16.17
2022-10-02T22:17:35.630Z,15.98
2022-10-02T22:20:08.497Z,16.83
2022-10-02T22:22:44.009Z,17.20
2022-10-02T22:25:18.185Z,17.20
2022-10-02T22:28:04.503Z,17.15
2022-10-02T22:30:35.217Z,18.88
2022-10-02T22:33:25.888Z,17.60
2022-10-02T22:36:12.451Z,19.20
2022-10-02T22:38:45.463Z,20.92
2022-10-02T22:41:20.832Z,21.85
2022-10-02T22:43:50.805Z,21.85
2022-10-02T22:46:22.343Z,20.58
2022-10-02T22:48:52.670Z,20.85
2022-10-02T22:51:22.958Z,20.20
2022-10-02T22:53:53.942Z,19.55
2022-10-02T22:56:25.263Z,20.55
2022-10-02T22:58:59.341Z,20.20
2022-10-02T23:01:29.121Z,20.33
2022-10-02T23:04:03.076Z,21.33
2022-10-02T23:06:32.820Z,20.42
2022-10-02T23:09:07.892Z,20.73
2022-10-02T23:11:40.091Z,19.48
2022-10-02T23:14:15.798Z,20.85
2022-10-02T23:16:47.174Z,20.30
2022-10-02T23:19:17.849Z,21.77
2022-10-02T23:21:48.381Z,20.60
2022-10-02T23:24:20.673Z,21.52
2022-10-02T23:26:49.913Z,21.63
2022-10-02T23:29:21.720Z,21.70
2022-10-02T23:31:55.471Z,21.42
2022-10-02T23:34:34.172Z,21.55
2022-10-02T23:37:13.604Z,22.80
2022-10-02T23:39:46.312Z,22.17
2022-10-02T23:42:14.916Z,21.88
2022-10-02T23:44:44.046Z,22.30
2022-10-02T23:47:27.096Z,21.15
2022-10-02T23:49:55.304Z,20.85
2022-10-02T23:52:29.349Z,20.30
2022-10-02T23:55:04.471Z,19.67
2022-10-02T23:57:38.927Z,19.27
